Time;durP1;ratioP1;P1;durP2;ratioP2;P2;SDS_P1;SDS_P2;PMS_P1;PMS_P2;Temp;Humidity;BMP_temperature;BMP_pressure;BME280_temperature;BME280_humidity;BME280_pressure;Samples;Min_cycle;Max_cycle;Signal;HPM_P1;HPM_P2
2021/09/30 00:00:41;;;;;;;4.07;1.45;;;10.10;99.90;;;;;;5085206;28;20035;-74
2021/09/30 00:03:10;;;;;;;12.10;1.20;;;10.10;99.90;;;;;;5084441;28;20052;-75
2021/09/30 00:05:38;;;;;;;1.17;0.65;;;10.10;99.90;;;;;;5080860;28;20720;-73
2021/09/30 00:08:10;;;;;;;2.42;1.23;;;10.10;99.90;;;;;;5084100;28;20059;-74
2021/09/30 00:10:37;;;;;;;1.63;0.57;;;10.10;99.90;;;;;;5084468;28;20027;-74
2021/09/30 00:13:15;;;;;;;4.55;1.50;;;10.10;99.90;;;;;;5084391;28;20024;-72
2021/09/30 00:16:03;;;;;;;5.82;1.10;;;10.20;99.90;;;;;;5083958;28;20017;-74
2021/09/30 00:34:57;;;;;;;6.13;0.98;;;10.20;99.90;;;;;;5083930;28;20495;-74
2021/09/30 08:18:44;;;;;;;6.28;1.67;;;12.30;99.90;;;;;;3063607;26;20057;-73
2021/09/30 08:21:19;;;;;;;6.10;0.90;;;12.40;99.90;;;;;;5029299;28;20101;-74
2021/09/30 08:23:46;;;;;;;2.38;1.23;;;12.40;99.90;;;;;;5023743;28;20033;-74
2021/09/30 08:26:18;;;;;;;5.38;2.03;;;12.50;99.90;;;;;;5028680;28;20147;-74
2021/09/30 08:28:44;;;;;;;9.48;1.77;;;12.60;99.90;;;;;;5030828;28;20038;-75
2021/09/30 08:31:10;;;;;;;6.47;1.40;;;12.60;99.90;;;;;;5023983;28;20025;-74
2021/09/30 08:33:40;;;;;;;1.40;0.60;;;12.60;99.90;;;;;;5041574;28;20037;-70
2021/09/30 08:36:09;;;;;;;6.32;1.88;;;12.60;99.90;;;;;;5035833;28;20030;-71
2021/09/30 08:38:35;;;;;;;6.13;1.10;;;12.60;99.90;;;;;;5036088;28;20033;-73
2021/09/30 08:41:01;;;;;;;2.05;0.85;;;12.60;99.90;;;;;;5037661;28;20039;-71
2021/09/30 08:43:27;;;;;;;3.72;0.95;;;12.60;99.90;;;;;;5038302;28;20034;-72
2021/09/30 08:45:54;;;;;;;4.65;1.23;;;12.70;99.90;;;;;;5027582;28;20025;-74
2021/09/30 08:48:22;;;;;;;4.25;0.98;;;12.70;99.90;;;;;;5037162;28;20049;-74
2021/09/30 08:50:48;;;;;;;3.78;0.88;;;12.70;99.90;;;;;;5042403;28;20068;-71
2021/09/30 08:53:14;;;;;;;7.57;1.80;;;12.80;99.90;;;;;;5024611;28;20040;-69
2021/09/30 08:55:41;;;;;;;10.50;1.05;;;12.80;99.90;;;;;;5017052;28;20055;-73
2021/09/30 08:58:08;;;;;;;13.73;1.80;;;12.90;99.90;;;;;;5021278;28;20120;-72
2021/09/30 09:00:37;;;;;;;4.30;1.50;;;12.90;99.90;;;;;;5040129;28;20044;-72
2021/09/30 09:03:03;;;;;;;2.78;1.17;;;13.00;99.90;;;;;;5042240;28;20436;-75
2021/09/30 09:05:29;;;;;;;10.90;1.10;;;13.10;99.90;;;;;;5030769;28;20085;-71
2021/09/30 09:08:03;;;;;;;5.97;0.82;;;13.10;99.90;;;;;;5021858;28;20072;-73
2021/09/30 09:10:30;;;;;;;;;;;13.20;99.90;;;;;;5022198;28;20075;-74
2021/09/30 09:13:14;;;;;;;6.32;1.58;;;13.30;99.90;;;;;;5024913;28;20237;-73
2021/09/30 09:15:46;;;;;;;5.70;1.45;;;13.50;99.90;;;;;;5043219;28;20033;-73
2021/09/30 09:18:25;;;;;;;6.78;1.45;;;13.60;99.90;;;;;;5025461;28;20045;-70
2021/09/30 09:21:11;;;;;;;6.00;1.23;;;13.60;99.90;;;;;;5048777;28;20025;-71
2021/09/30 09:23:52;;;;;;;4.03;1.15;;;13.70;99.90;;;;;;5051488;28;20029;-71
2021/09/30 09:26:33;;;;;;;1.27;0.82;;;13.70;99.90;;;;;;5056519;28;20033;-73
2021/09/30 09:29:20;;;;;;;3.97;1.05;;;13.80;99.90;;;;;;5057008;28;20132;-72
2021/09/30 09:31:51;;;;;;;7.63;0.90;;;13.80;99.90;;;;;;5050895;28;20040;-73
2021/09/30 09:34:32;;;;;;;1.23;0.95;;;13.90;99.90;;;;;;5044511;28;20084;-73
2021/09/30 09:37:20;;;;;;;6.38;0.80;;;13.90;99.90;;;;;;5062667;28;20028;-71
2021/09/30 09:39:47;;;;;;;4.00;0.95;;;14.00;99.90;;;;;;5055210;28;20483;-72
2021/09/30 09:42:24;;;;;;;1.95;1.05;;;14.10;99.90;;;;;;5043935;28;20036;-71
2021/09/30 09:45:01;;;;;;;2.03;1.17;;;14.10;99.90;;;;;;5042606;28;20068;-74
2021/09/30 09:47:35;;;;;;;6.68;1.13;;;14.20;99.90;;;;;;5042017;28;20112;-73
2021/09/30 09:50:18;;;;;;;8.15;1.40;;;14.20;99.90;;;;;;5042435;28;20029;-70
2021/09/30 09:52:56;;;;;;;4.03;1.17;;;14.30;99.90;;;;;;5024673;28;20041;-71
2021/09/30 09:55:24;;;;;;;1.95;0.65;;;14.30;99.90;;;;;;5042701;28;20039;-73
2021/09/30 09:58:14;;;;;;;7.38;0.95;;;14.30;99.90;;;;;;5051727;28;20021;-72
2021/09/30 10:00:42;;;;;;;10.02;1.05;;;14.40;99.90;;;;;;5065397;28;20095;-71
2021/09/30 10:03:16;;;;;;;4.47;1.45;;;14.60;99.90;;;;;;5067367;28;20040;-69
2021/09/30 10:05:42;;;;;;;;;;;14.70;99.90;;;;;;5067377;28;20051;-73
2021/09/30 10:08:09;;;;;;;1.48;0.45;;;14.80;99.90;;;;;;5066882;28;19917;-73
2021/09/30 10:10:36;;;;;;;4.75;0.75;;;14.90;99.90;;;;;;5068516;28;20405;-72
2021/09/30 10:13:02;;;;;;;4.43;1.50;;;15.00;99.90;;;;;;5066540;28;20029;-70
2021/09/30 10:15:28;;;;;;;3.10;0.65;;;14.90;99.90;;;;;;5056266;28;20043;-70
2021/09/30 10:17:54;;;;;;;1.48;0.60;;;14.80;99.90;;;;;;5057930;28;20056;-71
2021/09/30 10:20:20;;;;;;;2.40;1.05;;;14.80;99.90;;;;;;5066353;28;20416;-73
2021/09/30 10:22:51;;;;;;;3.65;0.77;;;14.80;99.90;;;;;;5066621;28;20846;-70
2021/09/30 10:25:17;;;;;;;3.58;1.13;;;14.90;99.90;;;;;;5067202;28;20029;-72
2021/09/30 10:27:44;;;;;;;3.63;0.63;;;14.90;99.90;;;;;;5066928;28;20048;-71
2021/09/30 10:30:31;;;;;;;10.20;0.80;;;15.00;99.90;;;;;;5066592;28;20028;-72
2021/09/30 10:32:58;;;;;;;8.02;1.55;;;15.10;99.90;;;;;;5065388;28;20033;-71
2021/09/30 10:35:42;;;;;;;1.02;0.50;;;15.10;99.90;;;;;;5066192;28;20029;-74
2021/09/30 10:38:31;;;;;;;4.00;0.80;;;15.00;99.90;;;;;;5066285;28;20067;-72
2021/09/30 10:41:00;;;;;;;4.93;1.08;;;15.00;99.90;;;;;;5066348;28;20025;-71
2021/09/30 10:43:28;;;;;;;5.50;1.08;;;15.20;99.90;;;;;;5066399;28;20041;-73
2021/09/30 10:45:53;;;;;;;3.00;1.13;;;15.30;99.90;;;;;;5066191;28;20025;-72
2021/09/30 10:48:26;;;;;;;12.75;0.98;;;15.40;99.90;;;;;;5066233;28;20097;-71
2021/09/30 10:51:05;;;;;;;1.65;0.90;;;15.40;99.90;;;;;;5066355;28;20029;-74
2021/09/30 10:53:46;;;;;;;5.25;0.90;;;15.40;99.90;;;;;;5066562;28;20025;-71
2021/09/30 10:56:26;;;;;;;7.20;1.15;;;15.50;99.90;;;;;;5066081;28;20036;-75
2021/09/30 10:58:57;;;;;;;13.25;1.42;;;15.70;99.90;;;;;;5066371;28;20060;-76
2021/09/30 11:01:23;;;;;;;4.70;1.00;;;15.70;99.90;;;;;;5066646;28;20040;-72
2021/09/30 11:04:03;;;;;;;19.92;1.38;;;15.60;99.90;;;;;;5066055;28;20042;-76
2021/09/30 11:06:29;;;;;;;7.45;1.30;;;15.40;99.90;;;;;;5064592;28;20108;-75
2021/09/30 11:09:28;;;;;;;6.25;0.80;;;15.30;99.90;;;;;;5065424;28;20223;-71
2021/09/30 11:12:10;;;;;;;3.03;0.82;;;15.10;99.90;;;;;;5021059;28;20119;-72
2021/09/30 11:14:55;;;;;;;9.55;1.13;;;15.00;99.90;;;;;;5066319;28;20111;-75
2021/09/30 11:17:35;;;;;;;10.60;1.65;;;14.90;99.90;;;;;;5064730;28;20052;-72
2021/09/30 11:20:32;;;;;;;4.82;0.65;;;15.00;99.90;;;;;;5063944;28;20028;-71
2021/09/30 11:22:59;;;;;;;7.53;0.88;;;15.00;99.90;;;;;;5062168;28;20032;-73
2021/09/30 11:26:02;;;;;;;4.78;0.85;;;15.30;99.90;;;;;;5064994;28;20033;-74
2021/09/30 11:28:28;;;;;;;1.83;0.77;;;15.60;99.90;;;;;;5056105;28;20044;-75
2021/09/30 11:31:26;;;;;;;5.90;0.63;;;15.70;99.90;;;;;;5033051;28;20714;-74
2021/09/30 11:33:54;;;;;;;2.20;0.70;;;15.70;99.90;;;;;;5060177;28;20227;-74
2021/09/30 11:36:20;;;;;;;1.35;0.63;;;16.10;99.90;;;;;;5064326;28;20029;-73
2021/09/30 11:38:49;;;;;;;5.57;1.27;;;16.30;99.90;;;;;;5065043;28;20025;-72
2021/09/30 11:41:14;;;;;;;5.35;1.15;;;16.30;99.90;;;;;;5065365;28;20162;-74
2021/09/30 11:43:40;;;;;;;9.13;1.25;;;16.60;99.90;;;;;;5065613;28;20477;-74
2021/09/30 11:46:26;;;;;;;3.78;1.02;;;17.00;99.90;;;;;;5046941;28;20112;-74
2021/09/30 11:48:56;;;;;;;1.45;0.70;;;17.50;99.90;;;;;;5047195;28;20044;-73
2021/09/30 11:51:33;;;;;;;7.82;0.95;;;17.80;99.90;;;;;;5065246;28;20704;-74
2021/09/30 11:53:59;;;;;;;8.90;1.23;;;18.30;99.90;;;;;;5064834;28;20112;-77
2021/09/30 11:56:28;;;;;;;6.35;1.10;;;18.50;99.90;;;;;;5065239;28;20036;-72
2021/09/30 11:59:05;;;;;;;2.45;0.88;;;18.40;99.90;;;;;;5065123;28;20035;-73
2021/09/30 12:01:32;;;;;;;2.03;0.77;;;18.30;99.90;;;;;;5062829;28;20028;-73
2021/09/30 12:04:00;;;;;;;4.95;0.70;;;18.10;99.90;;;;;;5043535;28;20032;-76
2021/09/30 12:06:43;;;;;;;5.57;1.30;;;18.00;99.90;;;;;;5055473;28;20030;-72
2021/09/30 12:09:10;;;;;;;0.90;0.65;;;18.20;99.90;;;;;;5055809;28;20049;-71
2021/09/30 12:11:38;;;;;;;6.28;0.75;;;18.30;99.90;;;;;;5053130;28;20531;-71
2021/09/30 12:14:05;;;;;;;4.45;1.38;;;18.60;99.90;;;;;;5044236;28;20064;-73
2021/09/30 12:16:31;;;;;;;1.48;0.75;;;18.90;99.90;;;;;;5049985;28;20112;-71
2021/09/30 12:19:01;;;;;;;8.57;0.90;;;18.90;99.90;;;;;;5049784;28;20085;-74
2021/09/30 12:21:40;;;;;;;2.42;0.98;;;19.20;99.90;;;;;;5042694;28;20063;-75
2021/09/30 12:24:07;;;;;;;12.40;0.63;;;19.40;99.90;;;;;;5044328;28;20036;-74
2021/09/30 12:26:34;;;;;;;7.35;1.10;;;19.50;99.90;;;;;;5044592;28;20022;-72
2021/09/30 12:29:00;;;;;;;3.88;0.80;;;19.40;99.90;;;;;;5043421;28;20033;-71
2021/09/30 12:31:27;;;;;;;7.32;1.08;;;19.10;99.90;;;;;;5044716;28;20435;-74
2021/09/30 12:33:53;;;;;;;4.00;0.57;;;18.90;99.90;;;;;;5058130;28;20081;-73
2021/09/30 12:36:19;;;;;;;0.85;0.60;;;18.70;99.90;;;;;;5063587;28;20048;-74
2021/09/30 12:39:02;;;;;;;5.13;1.02;;;18.50;99.90;;;;;;5064521;28;20815;-73
2021/09/30 12:41:30;;;;;;;1.75;0.60;;;18.50;99.90;;;;;;5046939;28;20048;-72
2021/09/30 12:44:13;;;;;;;2.05;0.57;;;18.60;99.90;;;;;;5064584;28;20021;-73
2021/09/30 12:46:47;;;;;;;1.38;0.40;;;18.70;99.90;;;;;;5064228;28;20396;-73
2021/09/30 12:49:14;;;;;;;;;;;18.70;99.90;;;;;;5064538;28;20044;-73
2021/09/30 12:51:39;;;;;;;3.40;0.98;;;18.80;99.90;;;;;;5064571;28;20027;-73
2021/09/30 12:54:05;;;;;;;1.30;0.43;;;18.70;99.90;;;;;;5063876;28;20114;-75
2021/09/30 12:56:33;;;;;;;0.80;0.30;;;18.70;99.90;;;;;;5063377;28;20025;-74
2021/09/30 12:59:15;;;;;;;3.45;0.93;;;18.80;99.90;;;;;;5063890;28;20044;-72
2021/09/30 13:01:42;;;;;;;1.80;0.70;;;18.70;99.90;;;;;;5063997;28;20068;-73
2021/09/30 13:04:14;;;;;;;3.58;0.50;;;18.70;99.90;;;;;;5064269;28;20047;-72
2021/09/30 13:06:55;;;;;;;2.08;0.65;;;18.90;99.90;;;;;;5064210;28;20065;-73
2021/09/30 13:09:28;;;;;;;1.92;0.47;;;18.80;99.90;;;;;;5063839;28;20036;-71
2021/09/30 13:12:00;;;;;;;3.05;0.75;;;18.90;99.90;;;;;;5064291;28;20052;-73
2021/09/30 13:14:36;;;;;;;9.35;1.00;;;19.00;99.90;;;;;;5063899;28;20033;-72
2021/09/30 13:17:19;;;;;;;4.60;1.00;;;19.00;99.90;;;;;;5063656;28;20025;-74
2021/09/30 13:19:49;;;;;;;1.67;0.50;;;19.20;99.90;;;;;;5064111;28;20045;-72
2021/09/30 13:22:21;;;;;;;9.73;0.50;;;19.20;99.90;;;;;;5062687;28;20560;-73
2021/09/30 13:24:50;;;;;;;1.75;0.77;;;19.30;99.90;;;;;;5052409;28;20026;-74
2021/09/30 13:27:19;;;;;;;5.97;0.85;;;19.40;99.90;;;;;;5044307;28;20033;-73
2021/09/30 13:29:47;;;;;;;0.55;0.20;;;19.40;99.90;;;;;;5046363;28;20040;-74
2021/09/30 13:32:14;;;;;;;5.95;0.63;;;19.40;99.90;;;;;;5060611;28;20096;-71
2021/09/30 13:34:40;;;;;;;2.55;0.63;;;19.50;99.90;;;;;;5060310;28;20084;-72
2021/09/30 13:37:05;;;;;;;2.20;0.50;;;19.60;99.90;;;;;;5046259;28;20488;-72
2021/09/30 13:39:31;;;;;;;3.58;0.47;;;19.80;99.90;;;;;;5048227;28;20030;-73
2021/09/30 13:41:56;;;;;;;2.15;0.60;;;20.00;99.90;;;;;;5049705;28;20052;-75
2021/09/30 13:44:22;;;;;;;3.72;0.82;;;20.30;99.90;;;;;;5067743;28;20028;-74
2021/09/30 13:46:48;;;;;;;4.13;0.50;;;20.50;99.90;;;;;;5055346;28;20473;-72
2021/09/30 13:49:14;;;;;;;0.80;0.65;;;20.70;99.90;;;;;;5051106;28;20508;-74
2021/09/30 13:51:39;;;;;;;3.05;0.60;;;21.00;99.90;;;;;;5052662;28;20029;-71
2021/09/30 13:54:05;;;;;;;2.97;0.73;;;21.00;99.90;;;;;;5054725;28;20036;-71
2021/09/30 13:56:31;;;;;;;2.47;0.50;;;20.70;99.90;;;;;;5059519;28;20037;-74
2021/09/30 13:58:57;;;;;;;1.23;0.55;;;20.20;99.90;;;;;;5062753;28;20025;-73
2021/09/30 14:01:23;;;;;;;1.00;0.50;;;19.90;99.90;;;;;;5067204;28;20032;-73
2021/09/30 14:03:51;;;;;;;7.32;0.50;;;20.10;99.90;;;;;;5059692;28;20104;-73
2021/09/30 14:06:17;;;;;;;1.67;0.60;;;20.20;99.90;;;;;;5062574;28;20477;-72
2021/09/30 14:08:44;;;;;;;5.47;0.90;;;19.70;99.90;;;;;;5067227;28;20073;-73
2021/09/30 14:11:11;;;;;;;1.58;0.50;;;19.40;99.90;;;;;;5067066;28;20049;-71
2021/09/30 14:13:37;;;;;;;6.93;0.55;;;19.00;99.90;;;;;;5067386;28;20017;-73
2021/09/30 14:16:08;;;;;;;7.35;0.82;;;18.70;99.90;;;;;;5060138;28;20081;-74
2021/09/30 14:18:35;;;;;;;3.55;0.77;;;18.20;99.90;;;;;;5057311;28;20052;-71
2021/09/30 14:21:01;;;;;;;2.13;1.00;;;17.80;99.90;;;;;;5046677;28;20037;-74
2021/09/30 14:23:26;;;;;;;3.47;1.00;;;17.40;99.90;;;;;;5057777;28;20036;-73
2021/09/30 14:25:53;;;;;;;1.98;0.50;;;17.20;99.90;;;;;;5054894;28;20044;-73
2021/09/30 14:28:20;;;;;;;14.70;1.10;;;17.20;99.90;;;;;;5064662;28;20037;-74
2021/09/30 14:30:45;;;;;;;1.13;0.57;;;17.40;99.90;;;;;;5066825;28;20045;-74
2021/09/30 14:33:11;;;;;;;2.20;0.75;;;17.70;99.90;;;;;;5059871;28;20033;-72
2021/09/30 14:35:37;;;;;;;2.72;0.52;;;18.10;99.90;;;;;;5056111;28;20033;-72
2021/09/30 14:38:04;;;;;;;3.88;0.30;;;18.70;99.90;;;;;;5065858;28;20029;-74
2021/09/30 14:40:33;;;;;;;2.05;0.50;;;19.60;99.90;;;;;;5066651;28;20044;-72
2021/09/30 14:42:58;;;;;;;1.10;0.60;;;20.20;99.90;;;;;;5065667;28;20025;-70
2021/09/30 14:45:25;;;;;;;1.48;0.45;;;20.50;99.90;;;;;;5066825;28;20028;-71
2021/09/30 14:47:51;;;;;;;1.33;0.50;;;20.80;99.90;;;;;;5066290;28;20033;-72
2021/09/30 14:50:17;;;;;;;1.98;0.63;;;20.70;99.90;;;;;;5066651;28;20124;-72
2021/09/30 14:52:43;;;;;;;7.05;1.05;;;21.10;99.90;;;;;;5066757;28;20028;-74
2021/09/30 14:55:09;;;;;;;6.20;1.27;;;21.30;99.90;;;;;;5066728;28;20432;-73
2021/09/30 14:57:35;;;;;;;5.28;0.90;;;22.00;99.90;;;;;;5057466;28;20117;-74
2021/09/30 15:00:01;;;;;;;3.63;1.17;;;22.60;99.90;;;;;;5056354;28;20033;-72
2021/09/30 15:02:27;;;;;;;8.57;0.90;;;22.90;99.90;;;;;;5045950;28;20026;-75
2021/09/30 15:04:54;;;;;;;1.80;0.60;;;23.10;99.90;;;;;;5049167;28;20025;-75
2021/09/30 15:07:25;;;;;;;0.73;0.35;;;23.00;99.90;;;;;;5066142;28;20021;-73
2021/09/30 15:09:52;;;;;;;2.17;0.77;;;22.90;99.90;;;;;;5066630;28;20481;-75
2021/09/30 15:12:20;;;;;;;4.13;1.05;;;22.40;99.90;;;;;;5053934;28;20036;-72
2021/09/30 15:14:46;;;;;;;1.27;0.57;;;21.60;99.90;;;;;;5060116;28;20561;-73
2021/09/30 15:17:23;;;;;;;6.30;0.60;;;21.30;99.90;;;;;;5052284;28;20029;-72
2021/09/30 15:19:53;;;;;;;1.88;0.65;;;21.50;99.90;;;;;;5056299;28;20403;-74
2021/09/30 15:22:20;;;;;;;1.83;0.82;;;21.50;99.90;;;;;;5058581;28;20079;-74
2021/09/30 15:24:45;;;;;;;1.42;0.57;;;21.50;99.90;;;;;;5060865;28;20516;-73
2021/09/30 15:27:12;;;;;;;4.22;0.73;;;21.70;99.90;;;;;;5044673;28;20052;-72
2021/09/30 15:29:39;;;;;;;1.75;0.77;;;21.80;99.90;;;;;;5064566;28;20084;-74
2021/09/30 15:32:07;;;;;;;0.75;0.30;;;21.50;99.90;;;;;;5064799;28;20025;-75
2021/09/30 15:34:33;;;;;;;1.17;0.63;;;20.80;99.90;;;;;;5045006;28;20052;-75
2021/09/30 15:36:58;;;;;;;2.10;0.68;;;20.00;99.90;;;;;;5045102;28;20048;-74
2021/09/30 15:39:26;;;;;;;3.45;0.80;;;19.40;99.90;;;;;;5044984;28;20029;-70
2021/09/30 15:41:51;;;;;;;3.70;0.60;;;18.60;99.90;;;;;;5044517;28;20021;-72
2021/09/30 15:44:20;;;;;;;2.00;0.55;;;17.90;99.90;;;;;;5044722;28;20044;-74
2021/09/30 15:46:47;;;;;;;1.88;0.40;;;17.40;99.90;;;;;;5045076;28;20041;-74
2021/09/30 15:49:13;;;;;;;3.42;1.08;;;17.00;99.90;;;;;;5044048;28;20041;-74
2021/09/30 15:51:39;;;;;;;3.60;1.05;;;16.60;99.90;;;;;;5044509;28;20063;-74
2021/09/30 15:54:04;;;;;;;2.13;0.73;;;16.30;99.90;;;;;;5035728;28;20089;-73
2021/09/30 15:56:30;;;;;;;2.00;0.90;;;16.10;99.90;;;;;;5043518;28;20032;-73
2021/09/30 15:58:56;;;;;;;4.53;1.08;;;16.00;99.90;;;;;;5044142;28;20025;-73
2021/09/30 16:01:23;;;;;;;4.00;1.00;;;15.90;99.90;;;;;;5044912;28;20021;-72
2021/09/30 16:03:51;;;;;;;5.30;1.17;;;15.90;99.90;;;;;;5047547;28;20017;-73
2021/09/30 16:06:17;;;;;;;3.25;0.85;;;15.80;99.90;;;;;;5055225;28;20032;-72
2021/09/30 16:08:42;;;;;;;4.10;1.00;;;15.70;99.90;;;;;;5055940;28;20037;-73
2021/09/30 16:11:13;;;;;;;9.43;1.45;;;15.70;99.90;;;;;;5047724;28;20049;-73
2021/09/30 16:13:40;;;;;;;4.47;0.65;;;15.60;99.90;;;;;;5044160;28;20848;-72
2021/09/30 16:16:06;;;;;;;6.90;0.90;;;15.50;99.90;;;;;;5036542;28;20030;-72
2021/09/30 16:18:35;;;;;;;3.75;1.30;;;15.40;99.90;;;;;;5044369;28;20115;-73
2021/09/30 16:21:05;;;;;;;2.10;0.65;;;15.30;99.90;;;;;;5044872;28;20033;-73
2021/09/30 16:23:30;;;;;;;10.52;1.25;;;15.20;99.90;;;;;;5042633;28;20045;-74
2021/09/30 16:25:56;;;;;;;2.38;0.75;;;15.20;99.90;;;;;;5044601;28;20037;-73
2021/09/30 16:28:22;;;;;;;1.63;0.70;;;15.10;99.90;;;;;;5044506;28;20037;-71
2021/09/30 16:30:53;;;;;;;3.53;1.27;;;15.00;99.90;;;;;;5043783;28;20033;-73
2021/09/30 16:33:25;;;;;;;4.32;1.52;;;15.00;99.90;;;;;;5025899;28;20029;-74
2021/09/30 16:35:54;;;;;;;8.98;1.35;;;14.90;99.90;;;;;;5044885;28;20036;-74
2021/09/30 16:38:22;;;;;;;8.40;2.30;;;14.90;99.90;;;;;;5048159;28;20052;-74
2021/09/30 16:40:49;;;;;;;6.78;1.17;;;14.80;99.90;;;;;;5054318;28;20093;-73
2021/09/30 16:43:19;;;;;;;6.63;1.33;;;14.70;99.90;;;;;;5024499;28;20044;-73
2021/09/30 16:45:45;;;;;;;4.07;1.60;;;14.60;99.90;;;;;;5042134;28;20083;-72
2021/09/30 16:48:11;;;;;;;4.35;1.38;;;14.60;99.90;;;;;;5044505;28;20085;-72
2021/09/30 16:50:37;;;;;;;6.38;1.98;;;14.60;99.90;;;;;;5044249;28;20033;-72
2021/09/30 16:53:03;;;;;;;6.13;2.00;;;14.50;99.90;;;;;;5044598;28;20025;-72
2021/09/30 16:55:29;;;;;;;2.70;1.40;;;14.50;99.90;;;;;;5044748;28;20453;-72
2021/09/30 16:57:54;;;;;;;6.57;1.33;;;14.40;99.90;;;;;;5044387;28;20038;-76
2021/09/30 17:00:21;;;;;;;19.67;1.58;;;14.40;99.90;;;;;;5044687;28;20021;-74
2021/09/30 17:02:47;;;;;;;8.45;0.98;;;14.30;99.90;;;;;;5027344;28;20036;-74
2021/09/30 17:05:14;;;;;;;4.53;1.00;;;14.30;99.90;;;;;;5044277;28;20077;-72
2021/09/30 17:07:40;;;;;;;3.10;1.00;;;14.20;99.90;;;;;;5047733;28;20036;-75
2021/09/30 17:10:10;;;;;;;3.03;1.58;;;14.20;99.90;;;;;;5048654;28;20073;-74
2021/09/30 17:12:36;;;;;;;4.80;1.15;;;14.20;99.90;;;;;;5047044;28;20029;-75
2021/09/30 17:15:02;;;;;;;2.20;1.00;;;14.10;99.90;;;;;;5048449;28;20025;-74
2021/09/30 17:17:28;;;;;;;9.02;1.48;;;14.00;99.90;;;;;;5048051;28;20048;-74
2021/09/30 17:19:54;;;;;;;1.95;1.13;;;14.10;99.90;;;;;;5047793;28;20030;-76
2021/09/30 17:22:21;;;;;;;2.20;0.88;;;14.00;99.90;;;;;;5048659;28;20033;-73
2021/09/30 17:24:47;;;;;;;3.05;1.08;;;14.00;99.90;;;;;;5048347;28;20076;-73
2021/09/30 17:27:13;;;;;;;5.25;1.17;;;13.90;99.90;;;;;;5048010;28;20114;-74
2021/09/30 17:29:38;;;;;;;2.30;0.90;;;13.90;99.90;;;;;;5048264;28;20041;-73
2021/09/30 17:32:04;;;;;;;3.72;1.45;;;13.90;99.90;;;;;;5048229;28;20025;-75
2021/09/30 17:34:30;;;;;;;11.02;1.73;;;13.90;99.90;;;;;;5047607;28;20026;-74
2021/09/30 17:36:56;;;;;;;8.30;1.55;;;13.90;99.90;;;;;;5047054;28;20052;-74
2021/09/30 17:39:22;;;;;;;2.50;1.15;;;13.90;99.90;;;;;;5061104;28;20075;-76
2021/09/30 17:41:50;;;;;;;5.20;1.67;;;13.80;99.90;;;;;;5056529;28;20071;-74
2021/09/30 17:44:17;;;;;;;6.53;1.45;;;13.80;99.90;;;;;;5066346;28;20021;-74
2021/09/30 17:46:43;;;;;;;10.55;1.40;;;13.80;99.90;;;;;;5059512;28;20029;-73
2021/09/30 17:49:08;;;;;;;7.18;1.48;;;13.80;99.90;;;;;;5050610;28;20704;-73
2021/09/30 17:51:34;;;;;;;1.60;1.02;;;13.80;99.90;;;;;;5063489;28;20036;-73
2021/09/30 17:54:00;;;;;;;2.90;1.30;;;13.80;99.90;;;;;;5066436;28;20477;-74
2021/09/30 17:56:26;;;;;;;5.30;1.30;;;13.80;99.90;;;;;;5067640;28;20033;-74
2021/09/30 17:58:52;;;;;;;3.28;1.27;;;13.70;99.90;;;;;;5063378;28;20124;-74
2021/09/30 18:01:22;;;;;;;1.90;1.15;;;13.70;99.90;;;;;;5050343;28;20037;-74
2021/09/30 18:03:50;;;;;;;9.63;1.65;;;13.70;99.90;;;;;;5065976;28;20025;-73
2021/09/30 18:06:15;;;;;;;13.35;1.35;;;13.70;99.90;;;;;;5049596;28;20025;-73
2021/09/30 18:08:41;;;;;;;4.18;1.20;;;13.70;99.90;;;;;;5041286;28;20068;-72
2021/09/30 18:11:07;;;;;;;0.93;0.50;;;13.70;99.90;;;;;;5055727;28;20747;-73
2021/09/30 18:13:33;;;;;;;6.50;0.75;;;13.60;99.90;;;;;;5066782;28;20024;-73
2021/09/30 18:16:00;;;;;;;4.07;0.85;;;13.60;99.90;;;;;;5057311;28;20044;-74
2021/09/30 18:18:26;;;;;;;2.88;1.10;;;13.60;99.90;;;;;;5036465;28;20152;-73
2021/09/30 18:23:41;;;;;;;3.58;0.77;;;13.50;99.90;;;;;;5058747;28;20044;-76
2021/09/30 18:26:13;;;;;;;2.47;1.08;;;13.50;99.90;;;;;;5086310;28;20031;-74
2021/09/30 18:28:41;;;;;;;2.10;1.25;;;13.50;99.90;;;;;;5083050;28;20049;-73
2021/09/30 18:31:06;;;;;;;2.25;0.90;;;13.40;99.90;;;;;;5066728;28;20083;-74
2021/09/30 18:33:32;;;;;;;3.60;0.90;;;13.40;99.90;;;;;;5046813;28;20037;-74
2021/09/30 18:35:58;;;;;;;9.73;0.93;;;13.40;99.90;;;;;;5062674;28;20052;-73
2021/09/30 18:38:24;;;;;;;0.90;0.30;;;13.40;99.90;;;;;;5066778;28;20056;-74
2021/09/30 18:40:50;;;;;;;4.28;0.73;;;13.40;99.90;;;;;;5067170;28;20051;-73
2021/09/30 18:43:16;;;;;;;0.90;0.35;;;13.30;99.90;;;;;;5066878;28;20112;-73
2021/09/30 18:45:42;;;;;;;2.20;0.65;;;13.30;99.90;;;;;;5065664;28;20896;-74
2021/09/30 18:48:09;;;;;;;2.65;0.60;;;13.30;99.90;;;;;;5060655;28;20041;-73
2021/09/30 18:50:35;;;;;;;3.38;0.98;;;13.30;99.90;;;;;;5047826;28;20096;-74
2021/09/30 18:53:01;;;;;;;0.95;0.50;;;13.20;99.90;;;;;;5044043;28;20053;-75
2021/09/30 18:55:27;;;;;;;2.70;0.50;;;13.20;99.90;;;;;;5056824;28;20037;-73
2021/09/30 18:57:53;;;;;;;1.42;0.60;;;13.10;99.90;;;;;;5066281;28;20029;-73
2021/09/30 19:00:20;;;;;;;4.70;0.93;;;13.10;99.90;;;;;;5065998;28;20051;-73
2021/09/30 19:02:46;;;;;;;1.45;0.70;;;13.10;99.90;;;;;;5066230;28;20060;-72
2021/09/30 19:05:12;;;;;;;0.75;0.63;;;13.10;99.90;;;;;;5065845;28;20032;-73
2021/09/30 19:07:37;;;;;;;1.83;0.60;;;13.00;99.90;;;;;;5065582;28;20029;-73
2021/09/30 19:10:05;;;;;;;1.95;0.80;;;13.00;99.90;;;;;;5066135;28;20089;-74
2021/09/30 19:12:31;;;;;;;1.33;0.70;;;13.00;99.90;;;;;;5065838;28;20040;-74
2021/09/30 19:14:57;;;;;;;3.63;0.80;;;13.00;99.90;;;;;;5046777;28;20029;-74
2021/09/30 19:17:24;;;;;;;5.50;0.52;;;13.00;99.90;;;;;;5065112;28;20048;-74
2021/09/30 19:19:50;;;;;;;6.07;0.70;;;13.00;99.90;;;;;;5047745;28;20033;-75
2021/09/30 19:22:16;;;;;;;3.58;0.80;;;12.90;99.90;;;;;;5047851;28;20527;-74
2021/09/30 19:24:42;;;;;;;1.15;0.75;;;13.00;99.90;;;;;;5055280;28;20025;-72
2021/09/30 19:27:08;;;;;;;3.00;0.65;;;12.90;99.90;;;;;;5047335;28;20037;-74
2021/09/30 19:29:33;;;;;;;3.10;0.77;;;12.90;99.90;;;;;;5045997;28;20053;-72
2021/09/30 19:31:59;;;;;;;1.73;0.93;;;12.80;99.90;;;;;;5034073;28;20044;-72
2021/09/30 19:34:25;;;;;;;2.75;0.88;;;12.80;99.90;;;;;;5063843;28;20025;-71
2021/09/30 19:36:51;;;;;;;2.97;1.05;;;12.80;99.90;;;;;;5059320;28;20075;-73
2021/09/30 19:39:18;;;;;;;0.65;0.30;;;12.80;99.90;;;;;;5056192;28;20033;-74
2021/09/30 19:41:44;;;;;;;1.95;0.70;;;12.80;99.90;;;;;;5046173;28;20125;-74
2021/09/30 19:44:11;;;;;;;6.53;1.10;;;12.80;99.90;;;;;;5044984;28;20033;-73
2021/09/30 19:46:38;;;;;;;0.68;0.47;;;12.80;99.90;;;;;;5040884;28;20540;-73
2021/09/30 19:49:03;;;;;;;2.20;0.80;;;12.80;99.90;;;;;;5054361;28;20077;-74
2021/09/30 19:51:29;;;;;;;0.30;0.30;;;12.80;99.90;;;;;;5062505;28;20120;-73
2021/09/30 19:53:55;;;;;;;5.88;0.90;;;12.70;99.90;;;;;;5054199;28;20020;-73
2021/09/30 19:56:21;;;;;;;5.75;0.70;;;12.70;99.90;;;;;;5064787;28;20053;-74
2021/09/30 19:58:48;;;;;;;2.00;0.75;;;12.70;99.90;;;;;;5052887;28;20055;-73
2021/09/30 20:01:15;;;;;;;1.88;0.68;;;12.70;99.90;;;;;;5059682;28;20523;-73
2021/09/30 20:03:42;;;;;;;1.67;0.80;;;12.60;99.90;;;;;;5062485;28;20495;-73
2021/09/30 20:06:09;;;;;;;2.97;0.75;;;12.60;99.90;;;;;;5056832;28;20114;-73
2021/09/30 20:08:34;;;;;;;5.53;1.05;;;12.60;99.90;;;;;;5061815;28;20033;-74
2021/09/30 20:11:00;;;;;;;2.15;0.77;;;12.60;99.90;;;;;;5062001;28;20071;-74
2021/09/30 20:13:26;;;;;;;0.98;0.77;;;12.50;99.90;;;;;;5060492;28;20035;-74
2021/09/30 20:15:53;;;;;;;5.85;1.45;;;12.50;99.90;;;;;;5062225;28;20029;-74
2021/09/30 20:18:19;;;;;;;1.17;0.70;;;12.50;99.90;;;;;;5057063;28;20076;-73
2021/09/30 20:20:47;;;;;;;1.38;0.73;;;12.40;99.90;;;;;;5060418;28;20495;-73
2021/09/30 20:23:12;;;;;;;5.57;1.17;;;12.40;99.90;;;;;;5064169;28;20017;-73
2021/09/30 20:25:39;;;;;;;1.23;0.65;;;12.40;99.90;;;;;;5063194;28;20040;-73
2021/09/30 20:28:04;;;;;;;5.20;1.20;;;12.40;99.90;;;;;;5061879;28;20093;-73
2021/09/30 20:30:30;;;;;;;1.85;0.73;;;12.40;99.90;;;;;;5053344;28;20072;-74
2021/09/30 20:32:56;;;;;;;2.90;0.88;;;12.30;99.90;;;;;;5042856;28;20048;-74
2021/09/30 20:35:22;;;;;;;5.93;1.08;;;12.30;99.90;;;;;;5044846;28;20465;-74
2021/09/30 20:37:48;;;;;;;1.67;0.73;;;12.30;99.90;;;;;;5026861;28;20029;-73
2021/09/30 20:40:14;;;;;;;2.33;1.08;;;12.30;99.90;;;;;;5043956;28;20037;-73
2021/09/30 20:42:40;;;;;;;1.42;1.08;;;12.20;99.90;;;;;;5044256;28;20413;-71
2021/09/30 20:45:06;;;;;;;1.83;0.93;;;12.30;99.90;;;;;;5044206;28;20040;-73
2021/09/30 20:47:32;;;;;;;1.60;1.02;;;12.30;99.90;;;;;;5046697;28;20037;-73
2021/09/30 20:49:58;;;;;;;2.08;1.00;;;12.20;99.90;;;;;;5053047;28;20048;-69
2021/09/30 20:52:23;;;;;;;1.77;1.08;;;12.20;99.90;;;;;;5044330;28;20026;-75
2021/09/30 20:54:52;;;;;;;9.57;0.95;;;12.20;99.90;;;;;;5044814;28;20108;-73
2021/09/30 20:57:19;;;;;;;3.83;1.30;;;12.00;99.90;;;;;;5044653;28;20033;-73